This is the latest recevied weather packets stored in our database for station/object K3RTA-2. If no packets are shown the sender has not sent any weather packets the latest 10 day(s).
| Time | Temp. | Humidity | Pressure | Rain* | Wind** | Luminosity | Snow |
|---|---|---|---|---|---|---|---|
| 1777831204 | 14.44° C | 42% | 1014.9 hPa | 0 mm | - | - | - |
| 1777830905 | 14.44° C | 44% | 1015 hPa | 0 mm | - | - | - |
| 1777829404 | 13.89° C | 43% | 1015.1 hPa | 0 mm | - | - | - |
| 1777826404 | 12.78° C | 46% | 1015.2 hPa | 0 mm | - | - | - |
| 1777826105 | 12.78° C | 46% | 1015.3 hPa | 0 mm | - | - | - |
| 1777824904 | 11.67° C | 47% | 1015.4 hPa | 0 mm | - | - | - |
| 1777821604 | 11.67° C | 53% | 1015.5 hPa | 0 mm | - | - | - |
| 1777820104 | 10.56° C | 56% | 1015.5 hPa | 0 mm | - | - | - |
| 1777818604 | 10° C | 59% | 1015.6 hPa | 0 mm | - | - | - |
| 1777818004 | 10.56° C | 60% | 1015.5 hPa | 0 mm | - | - | - |
| 1777817104 | 10° C | 58% | 1015.5 hPa | 0 mm | - | - | - |
| 1777813805 | 8.89° C | 63% | 1015.4 hPa | 0 mm | - | - | - |
| 1777813205 | 8.89° C | 66% | 1015.3 hPa | 0 mm | - | - | - |
| 1777811404 | 9.44° C | 64% | 1015 hPa | 0 mm | - | - | - |
| 1777808404 | 7.78° C | 73% | 1014.5 hPa | 0 mm | - | - | - |
| 1777807505 | 7.22° C | 76% | 1014.3 hPa | 0 mm | - | - | - |
| 1777807204 | 6.67° C | 76% | 1014.3 hPa | 0 mm | - | - | - |
| 1777803605 | 5.56° C | 79% | 1013.3 hPa | 0 mm | - | - | - |
| 1777803304 | 5.56° C | 80% | 1013.3 hPa | 0 mm | - | - | - |
| 1777802105 | 5.56° C | 80% | 1013.1 hPa | 0 mm | - | - | - |
| 1777800904 | 5.56° C | 81% | 1012.7 hPa | 0 mm | - | - | - |
| 1777800004 | 5.56° C | 80% | 1012.7 hPa | 0 mm | - | - | - |
| 1777795805 | 6.11° C | 76% | 1012.2 hPa | 0 mm | - | - | - |
| 1777795204 | 6.67° C | 75% | 1012.3 hPa | 0 mm | - | - | - |
| 1777794604 | 6.67° C | 75% | 1012.2 hPa | 0 mm | - | - | - |
* Rain latest hour (hover to see other rain measurements)
** Current wind speed in m/s (hover to see current wind gust speed)